Huvudsida
METAR-TAF:

METAR-TAF

Flygplatser :

Berlevågs flygplats

Berlevågs, Norge

latitud: 70-52N, longitud: 029-02E, höjd: 1 m

Aktuellt väderrapport

Denna rapport gjordes för 15 minuter sedan, klockan 14:50 UTC
Vind 14 kt från väst
Temperatur 4°C
Fuktighet 93%
Tryck 1012 hPa
Sikt 10 km eller mer
Brutna moln på en höjd av 1300 ft
lätt duggregn

METAR: ENBV 231450Z 28014KT 9999 -DZ BKN013 04/03 Q1012

Tid: 17:05 (15:05 UTC)

Väderprognos

Denna rapport gjordes för 1 timme och 5 minuter sedan, klockan 14:00 UTC
Prognos gäller från 23 kl. 15 UTC till 23 kl. 21 UTC
Vind 15 kt från väst
Sikt 10 km eller mer
Få moln på en höjd av 500 ft
Brutna moln på en höjd av 1600 ft
Temporärt
från 23 kl. 15 UTC till 23 kl. 21 UTC
Brutna moln på en höjd av 800 ft
lätt duggregn

TAF: ENBV 231400Z 2315/2321 27015KT 9999 FEW005 BKN016 TEMPO 2315/2321 -DZ BKN008

Aktuella väderrapporter och prognoser från 4000 flygplatser (METAR- och TAF-rapporter).

De tillgängliga stationerna syns som gula och röda prickar på kartan.

För musen över prickarna för att se namnen på stationerna.

Klicka sedan för att få väderrapporter och prognoser.

För att ändra kartan: Klicka på de gröna knapparna med ett svart kors på för att zooma in; den gröna knappen med ett streck på för att zooma ut; eller på de gröna pilarna för angränsande kartor.


METAR-TAF: